Time;durP1;ratioP1;P1;durP2;ratioP2;P2;SDS_P1;SDS_P2;PMS_P1;PMS_P2;Temp;Humidity;BMP_temperature;BMP_pressure;BME280_temperature;BME280_humidity;BME280_pressure;Samples;Min_cycle;Max_cycle;Signal;HPM_P1;HPM_P2
2022/05/16 00:01:52;;;;;;;;;;;14.60;99.90;;;;;;4973041;28;20375;-76
2022/05/16 00:04:18;;;;;;;;;;;14.60;99.90;;;;;;4970311;28;19933;-76
2022/05/16 00:06:44;;;;;;;;;;;14.70;99.90;;;;;;4953614;28;19925;-76
2022/05/16 00:09:09;;;;;;;;;;;14.70;99.90;;;;;;4968404;28;19932;-76
2022/05/16 00:11:35;;;;;;;;;;;14.70;99.90;;;;;;4951684;28;19930;-76
2022/05/16 00:14:01;;;;;;;;;;;14.60;99.90;;;;;;4968142;28;19925;-77
2022/05/16 00:16:27;;;;;;;;;;;14.70;99.90;;;;;;4967122;28;19933;-76
2022/05/16 00:18:52;;;;;;;;;;;14.60;99.90;;;;;;4966526;28;20183;-77
2022/05/16 00:21:18;;;;;;;;;;;14.50;99.90;;;;;;4968838;28;19929;-77
2022/05/16 00:23:44;;;;;;;;;;;14.60;99.90;;;;;;4954118;28;19930;-76
2022/05/16 00:26:10;;;;;;;;;;;14.50;99.90;;;;;;4954498;28;19930;-77
2022/05/16 00:28:36;;;;;;;;;;;14.50;99.90;;;;;;4968273;28;19925;-76
2022/05/16 00:31:03;;;;;;;;;;;14.40;99.90;;;;;;4967976;28;19930;-76
2022/05/16 00:33:28;;;;;;;;;;;14.50;99.90;;;;;;4970481;28;20928;-77
2022/05/16 00:35:54;;;;;;;;;;;14.30;99.90;;;;;;4970100;28;19926;-76
2022/05/16 00:38:20;;;;;;;;;;;14.30;99.90;;;;;;4968475;28;19933;-76
2022/05/16 00:40:45;;;;;;;;;;;14.30;99.90;;;;;;4968503;28;19925;-76
2022/05/16 00:43:12;;;;;;;;;;;14.20;99.90;;;;;;4968681;28;20387;-76
2022/05/16 00:45:38;;;;;;;;;;;14.40;99.90;;;;;;4969435;28;19925;-76
2022/05/16 00:48:04;;;;;;;;;;;14.30;99.90;;;;;;4970300;28;19930;-76
2022/05/16 00:50:31;;;;;;;;;;;14.30;99.90;;;;;;4952178;28;20008;-76
2022/05/16 00:52:57;;;;;;;;;;;14.40;99.90;;;;;;4966834;28;19932;-76
2022/05/16 00:55:28;;;;;;;;;;;14.30;99.90;;;;;;4968286;28;19925;-76
2022/05/16 00:57:56;;;;;;;;;;;14.40;99.90;;;;;;4965838;28;19941;-76
2022/05/16 01:00:26;;;;;;;;;;;14.30;99.90;;;;;;4969743;28;19933;-76
2022/05/16 01:05:38;;;;;;;;;;;14.20;99.90;;;;;;4951779;28;21038;-77
2022/05/16 01:08:09;;;;;;;;;;;14.20;99.90;;;;;;4967935;28;19930;-77
2022/05/16 01:10:35;;;;;;;;;;;14.10;99.90;;;;;;4952156;28;19988;-77
2022/05/16 01:13:03;;;;;;;;;;;14.10;99.90;;;;;;4951088;28;19996;-77
2022/05/16 01:15:31;;;;;;;;;;;14.00;99.90;;;;;;4970076;28;19925;-77
2022/05/16 01:17:57;;;;;;;;;;;14.10;99.90;;;;;;4959944;28;19926;-77
2022/05/16 01:20:23;;;;;;;;;;;14.00;99.90;;;;;;4948094;28;19930;-77
2022/05/16 01:22:50;;;;;;;;;;;14.00;99.90;;;;;;4947879;28;20828;-77
2022/05/16 01:25:19;;;;;;;;;;;14.10;99.90;;;;;;4950390;28;19938;-77
2022/05/16 01:27:46;;;;;;;;;;;14.10;99.90;;;;;;4947084;28;19926;-77
2022/05/16 01:30:13;;;;;;;;;;;14.10;99.90;;;;;;4948986;28;19960;-77
2022/05/16 01:32:38;;;;;;;;;;;14.20;99.90;;;;;;4931186;28;19937;-77
2022/05/16 01:35:04;;;;;;;;;;;14.10;99.90;;;;;;4950070;28;19925;-77
2022/05/16 01:40:14;;;;;;;;;;;14.20;99.90;;;;;;4940241;28;19938;-77
2022/05/16 01:42:41;;;;;;;;;;;14.10;99.90;;;;;;4933360;28;19926;-77
2022/05/16 01:45:06;;;;;;;;;;;14.10;99.90;;;;;;4950134;28;19940;-77
2022/05/16 01:47:33;;;;;;;;;;;13.90;99.90;;;;;;4950535;28;19925;-77
2022/05/16 01:49:59;;;;;;;;;;;13.90;99.90;;;;;;4951175;28;19925;-77
2022/05/16 01:52:25;;;;;;;;;;;13.90;99.90;;;;;;4950737;28;19937;-77
2022/05/16 01:54:51;;;;;;;;;;;13.90;99.90;;;;;;4932689;28;19930;-77
2022/05/16 01:57:17;;;;;;;;;;;13.90;99.90;;;;;;4932621;28;20383;-77
2022/05/16 01:59:42;;;;;;;;;;;13.80;99.90;;;;;;4958728;28;19925;-77
2022/05/16 02:02:08;;;;;;;;;;;13.90;99.90;;;;;;4950849;28;20394;-77
2022/05/16 02:04:34;;;;;;;;;;;13.80;99.90;;;;;;4953449;28;20631;-77
2022/05/16 02:07:00;;;;;;;;;;;13.80;99.90;;;;;;4931612;28;19985;-77
2022/05/16 02:09:26;;;;;;;;;;;13.70;99.90;;;;;;4953739;28;20478;-77
2022/05/16 02:11:52;;;;;;;;;;;13.70;99.90;;;;;;4935341;28;19936;-77
2022/05/16 02:14:17;;;;;;;;;;;13.60;99.90;;;;;;4954337;28;19926;-77
2022/05/16 02:16:43;;;;;;;;;;;13.50;99.90;;;;;;4954870;28;19973;-77
2022/05/16 02:19:09;;;;;;;;;;;13.60;99.90;;;;;;4918710;28;20750;-77
2022/05/16 02:27:04;;;;;;;;;;;13.60;99.90;;;;;;4951915;28;19926;-77
2022/05/16 02:29:29;;;;;;;;;;;13.60;99.90;;;;;;4950651;28;19926;-77
2022/05/16 02:31:55;;;;;;;;;;;13.60;99.90;;;;;;4949454;28;19965;-77
2022/05/16 02:34:21;;;;;;;;;;;13.60;99.90;;;;;;4943594;28;19925;-77
2022/05/16 02:36:46;;;;;;;;;;;13.60;99.90;;;;;;4931745;28;20817;-77
2022/05/16 02:39:13;;;;;;;;;;;13.50;99.90;;;;;;4950164;28;19926;-77
2022/05/16 02:41:39;;;;;;;;;;;13.50;99.90;;;;;;4950464;28;19966;-77
2022/05/16 02:44:05;;;;;;;;;;;13.40;99.90;;;;;;4951907;28;19926;-77
2022/05/16 02:46:31;;;;;;;;;;;13.40;99.90;;;;;;4949791;28;20394;-77
2022/05/16 02:48:57;;;;;;;;;;;13.30;99.90;;;;;;4951066;28;19930;-77
2022/05/16 02:51:22;;;;;;;;;;;13.30;99.90;;;;;;4948599;28;19926;-78
2022/05/16 02:53:48;;;;;;;;;;;13.30;99.90;;;;;;4935111;28;20395;-77
2022/05/16 02:56:14;;;;;;;;;;;13.20;99.90;;;;;;4949500;28;20695;-77
2022/05/16 02:58:40;;;;;;;;;;;13.10;99.90;;;;;;4948127;28;19926;-77
2022/05/16 03:01:06;;;;;;;;;;;13.20;99.90;;;;;;4951847;28;19926;-77
2022/05/16 03:03:32;;;;;;;;;;;13.10;99.90;;;;;;4957508;28;20009;-77
2022/05/16 03:05:58;;;;;;;;;;;13.00;99.90;;;;;;4955023;28;19932;-77
2022/05/16 03:08:24;;;;;;;;;;;13.00;99.90;;;;;;4954640;28;19965;-77
2022/05/16 03:10:50;;;;;;;;;;;13.00;99.90;;;;;;4957193;28;19968;-77
2022/05/16 03:13:15;;;;;;;;;;;12.90;99.90;;;;;;4937200;28;20528;-77
2022/05/16 03:15:41;;;;;;;;;;;12.90;99.90;;;;;;4951651;28;19942;-77
2022/05/16 03:18:07;;;;;;;;;;;13.00;99.90;;;;;;4965145;28;19926;-77
2022/05/16 03:20:33;;;;;;;;;;;12.80;99.90;;;;;;4979068;28;19925;-78
2022/05/16 03:22:58;;;;;;;;;;;12.80;99.90;;;;;;4973650;28;19925;-77
2022/05/16 03:25:24;;;;;;;;;;;12.80;99.90;;;;;;4975398;28;20016;-77
2022/05/16 03:27:50;;;;;;;;;;;12.80;99.90;;;;;;4975121;28;19932;-77
2022/05/16 03:30:16;;;;;;;;;;;12.80;99.90;;;;;;4959506;28;20032;-77
2022/05/16 03:32:41;;;;;;;;;;;12.60;99.90;;;;;;4973982;28;19925;-77
2022/05/16 03:35:08;;;;;;;;;;;12.60;99.90;;;;;;4975067;28;19929;-77
2022/05/16 03:37:33;;;;;;;;;;;12.60;99.90;;;;;;4971173;28;19926;-78
2022/05/16 03:42:43;;;;;;;;;;;12.70;99.90;;;;;;4953892;28;19984;-77
2022/05/16 03:45:10;;;;;;;;;;;12.60;99.90;;;;;;4975336;28;19929;-77
2022/05/16 03:47:35;;;;;;;;;;;12.70;99.90;;;;;;4973658;28;20682;-77
2022/05/16 03:50:01;;;;;;;;;;;12.90;99.90;;;;;;4972021;28;19929;-77
2022/05/16 03:52:27;;;;;;;;;;;12.90;99.90;;;;;;4975337;28;19925;-77
2022/05/16 03:54:52;;;;;;;;;;;12.90;99.90;;;;;;4971812;28;20048;-77
2022/05/16 03:57:18;;;;;;;;;;;13.00;99.90;;;;;;4971396;28;19933;-77
2022/05/16 03:59:44;;;;;;;;;;;12.90;99.90;;;;;;4970759;28;19929;-77
2022/05/16 04:02:09;;;;;;;;;;;13.00;99.90;;;;;;4971648;28;20381;-77
2022/05/16 04:04:36;;;;;;;;;;;12.90;99.90;;;;;;4971236;28;19942;-77
2022/05/16 04:07:01;;;;;;;;;;;12.90;99.90;;;;;;4972361;28;19929;-78
2022/05/16 04:09:34;;;;;;;;;;;12.80;99.90;;;;;;4969376;28;20094;-77
2022/05/16 04:12:01;;;;;;;;;;;12.70;99.90;;;;;;4955145;28;19927;-78
2022/05/16 04:14:26;;;;;;;;;;;12.80;99.90;;;;;;4953786;28;19937;-78
2022/05/16 04:16:52;;;;;;;;;;;12.90;99.90;;;;;;4970489;28;19960;-77
2022/05/16 04:19:18;;;;;;;;;;;12.90;99.90;;;;;;4969357;28;20509;-77
2022/05/16 04:21:44;;;;;;;;;;;12.90;99.90;;;;;;4970076;28;19926;-77
2022/05/16 04:24:09;;;;;;;;;;;12.90;99.90;;;;;;4969645;28;20542;-77
2022/05/16 04:26:35;;;;;;;;;;;12.90;99.90;;;;;;4969325;28;20638;-78
2022/05/16 04:29:02;;;;;;;;;;;13.00;99.90;;;;;;4968451;28;19932;-77
2022/05/16 04:31:27;;;;;;;;;;;13.00;99.90;;;;;;4970194;28;20012;-77
2022/05/16 04:33:53;;;;;;;;;;;13.10;99.90;;;;;;4971024;28;19992;-78
2022/05/16 04:36:19;;;;;;;;;;;13.30;99.90;;;;;;4969235;28;19929;-78
2022/05/16 04:38:45;;;;;;;;;;;13.30;99.90;;;;;;4954949;28;20016;-77
2022/05/16 04:43:55;;;;;;;;;;;13.50;99.90;;;;;;4967682;28;19925;-77
2022/05/16 04:46:21;;;;;;;;;;;13.50;99.90;;;;;;4952776;28;20363;-77
2022/05/16 04:48:47;;;;;;;;;;;13.70;99.90;;;;;;4968602;28;19976;-77
2022/05/16 04:51:13;;;;;;;;;;;14.00;99.90;;;;;;4943708;28;20041;-77
2022/05/16 04:53:39;;;;;;;;;;;14.30;99.90;;;;;;4960359;28;19980;-78
2022/05/16 04:56:08;;;;;;;;;;;14.50;99.90;;;;;;4959682;28;19937;-78
2022/05/16 04:58:34;;;;;;;;;;;15.00;99.90;;;;;;4959760;28;21599;-78
2022/05/16 05:01:00;;;;;;;;;;;15.80;99.90;;;;;;4958449;28;19925;-77
2022/05/16 05:03:26;;;;;;;;;;;16.20;99.90;;;;;;4964921;28;20485;-77
2022/05/16 05:05:52;;;;;;;;;;;16.60;99.90;;;;;;4960258;28;19930;-78
2022/05/16 05:08:18;;;;;;;;;;;16.10;99.90;;;;;;4960268;28;19929;-78
2022/05/16 05:16:14;;;;;;;;;;;15.40;99.90;;;;;;4960377;28;19929;-77
2022/05/16 05:18:40;;;;;;;;;;;15.50;99.90;;;;;;4961160;28;19925;-78
2022/05/16 05:21:06;;;;;;;;;;;15.90;99.90;;;;;;4943659;28;20954;-77
2022/05/16 05:23:34;;;;;;;;;;;16.10;99.90;;;;;;4958662;28;20354;-78
2022/05/16 05:26:00;;;;;;;;;;;17.50;99.90;;;;;;4961087;28;20318;-77
2022/05/16 05:28:26;;;;;;;;;;;17.90;99.90;;;;;;4962614;28;19960;-77
2022/05/16 05:30:51;;;;;;;;;;;18.00;99.90;;;;;;4959633;28;20390;-77
2022/05/16 05:33:17;;;;;;;;;;;17.60;99.90;;;;;;4958385;28;19925;-77
2022/05/16 05:35:43;;;;;;;;;;;19.20;99.90;;;;;;4958621;28;20354;-77
2022/05/16 05:38:09;;;;;;;;;;;18.20;99.90;;;;;;4946564;28;19953;-78
2022/05/16 05:40:37;;;;;;;;;;;17.60;99.90;;;;;;4947989;28;19925;-79
2022/05/16 05:43:06;;;;;;;;;;;18.10;99.90;;;;;;4963087;28;19925;-78
2022/05/16 05:45:33;;;;;;;;;;;17.70;99.90;;;;;;4961681;28;19930;-78
2022/05/16 05:47:59;;;;;;;;;;;17.10;99.90;;;;;;4945189;28;20044;-79
2022/05/16 05:50:24;;;;;;;;;;;17.00;99.90;;;;;;4969407;28;19925;-79
2022/05/16 05:52:50;;;;;;;;;;;17.10;99.90;;;;;;4967694;28;19945;-78
2022/05/16 05:55:16;;;;;;;;;;;16.90;99.90;;;;;;4972742;28;20321;-77
2022/05/16 05:57:42;;;;;;;;;;;16.80;99.90;;;;;;4971443;28;19925;-76
2022/05/16 06:00:09;;;;;;;;;;;16.30;99.90;;;;;;4971159;28;19926;-78
2022/05/16 06:02:40;;;;;;;;;;;16.70;99.90;;;;;;4951637;28;19929;-77
2022/05/16 06:05:16;;;;;;;;;;;16.60;99.90;;;;;;4970547;28;19976;-79
2022/05/16 06:07:42;;;;;;;;;;;16.60;99.90;;;;;;4973662;28;19952;-78
2022/05/16 06:10:08;;;;;;;;;;;16.40;99.90;;;;;;4953784;28;19926;-78
2022/05/16 06:12:34;;;;;;;;;;;16.50;99.90;;;;;;4954911;28;19930;-79
2022/05/16 06:15:00;;;;;;;;;;;16.80;99.90;;;;;;4969402;28;19921;-78
2022/05/16 06:17:26;;;;;;;;;;;17.60;99.90;;;;;;4953388;28;19976;-77
2022/05/16 06:19:51;;;;;;;;;;;17.40;99.90;;;;;;4969884;28;19926;-77
2022/05/16 06:22:17;;;;;;;;;;;17.50;99.90;;;;;;4953972;28;19926;-78
2022/05/16 06:27:29;;;;;;;;;;;17.60;99.90;;;;;;4969809;28;20525;-77
2022/05/16 06:29:56;;;;;;;;;;;18.30;99.90;;;;;;4944482;28;19925;-79
2022/05/16 06:32:21;;;;;;;;;;;17.90;99.90;;;;;;4946544;28;19926;-78
2022/05/16 06:34:48;;;;;;;;;;;18.10;99.90;;;;;;4958314;28;19933;-78
2022/05/16 06:37:14;;;;;;;;;;;18.30;99.90;;;;;;4979801;28;19922;-79
2022/05/16 06:39:40;;;;;;;;;;;18.00;99.90;;;;;;4980025;28;20007;-78
2022/05/16 06:42:06;;;;;;;;;;;18.10;99.90;;;;;;4978334;28;20294;-78
2022/05/16 06:44:32;;;;;;;;;;;18.30;99.90;;;;;;4977409;28;19988;-78
2022/05/16 06:46:57;;;;;;;;;;;18.70;99.90;;;;;;4955038;28;19926;-78
2022/05/16 06:49:23;;;;;;;;;;;18.80;99.90;;;;;;4955371;28;19996;-78
2022/05/16 06:51:49;;;;;;;;;;;18.90;99.90;;;;;;4958847;28;19926;-78
2022/05/16 06:54:15;;;;;;;;;;;18.60;99.90;;;;;;4960728;28;20909;-79
2022/05/16 06:56:40;;;;;;;;;;;18.70;99.90;;;;;;4937539;28;20527;-78
2022/05/16 06:59:06;;;;;;;;;;;19.80;99.90;;;;;;4953396;28;20375;-78
2022/05/16 07:01:32;;;;;;;;;;;19.50;99.90;;;;;;4949043;28;19925;-78
2022/05/16 07:03:58;;;;;;;;;;;19.10;99.90;;;;;;4952269;28;20823;-79
2022/05/16 07:06:23;;;;;;;;;;;19.10;99.90;;;;;;4954618;28;19936;-79
2022/05/16 07:08:49;;;;;;;;;;;19.40;99.90;;;;;;4950672;28;19925;-79
2022/05/16 07:11:15;;;;;;;;;;;19.30;99.90;;;;;;4953574;28;19936;-79
2022/05/16 07:13:40;;;;;;;;;;;19.70;99.90;;;;;;4937881;28;19926;-79
2022/05/16 07:16:06;;;;;;;;;;;19.40;99.90;;;;;;4953570;28;20048;-78
2022/05/16 07:18:32;;;;;;;;;;;19.90;99.90;;;;;;4950897;28;20511;-78
2022/05/16 07:20:59;;;;;;;;;;;19.30;99.90;;;;;;4951351;28;19942;-79
2022/05/16 07:23:24;;;;;;;;;;;20.30;99.90;;;;;;4955285;28;19925;-78
2022/05/16 07:28:34;;;;;;;;;;;19.90;99.90;;;;;;4951349;28;20022;-78
2022/05/16 07:31:00;;;;;;;;;;;21.20;99.90;;;;;;4955572;28;20038;-78
2022/05/16 07:33:26;;;;;;;;;;;21.80;99.90;;;;;;4935434;28;19925;-78
2022/05/16 07:35:54;;;;;;;;;;;20.60;97.10;;;;;;4938624;28;19928;-77
2022/05/16 07:38:22;;;;;;;;;;;20.70;99.90;;;;;;4941402;28;19929;-78
2022/05/16 07:40:48;;;;;;;;;;;20.80;96.70;;;;;;4930497;28;19936;-78
2022/05/16 07:43:14;;;;;;;;;;;21.10;97.40;;;;;;4947848;28;20024;-78
2022/05/16 07:45:40;;;;;;;;;;;21.20;94.50;;;;;;4934787;28;19925;-78
2022/05/16 07:48:06;;;;;;;;;;;21.40;99.90;;;;;;4930307;28;20931;-79
2022/05/16 07:50:33;;;;;;;;;;;21.30;99.50;;;;;;4933121;28;19929;-79
2022/05/16 07:52:58;;;;;;;;;;;21.40;99.90;;;;;;4948764;28;19926;-79
2022/05/16 07:55:25;;;;;;;;;;;21.00;99.90;;;;;;4932264;28;19929;-78
2022/05/16 07:57:51;;;;;;;;;;;21.50;99.20;;;;;;4948666;28;19968;-79
2022/05/16 08:00:18;;;;;;;;;;;21.70;99.90;;;;;;4948101;28;19988;-79
2022/05/16 08:02:44;;;;;;;;;;;21.20;91.10;;;;;;4933577;28;19925;-79
2022/05/16 08:05:10;;;;;;;;;;;21.10;94.80;;;;;;4931613;28;20569;-79
2022/05/16 08:10:29;;;;;;;;;;;21.70;99.90;;;;;;4922913;28;20016;-78
2022/05/16 08:10:31;;;;;;;;;;;21.70;99.90;;;;;;4950079;28;19932;-79
2022/05/16 08:12:57;;;;;;;;;;;21.60;97.50;;;;;;4949668;28;19937;-78
2022/05/16 08:15:23;;;;;;;;;;;21.70;94.20;;;;;;4933489;28;19933;-78
2022/05/16 08:17:48;;;;;;;;;;;22.50;99.90;;;;;;4952354;28;19929;-78
2022/05/16 08:20:14;;;;;;;;;;;22.10;94.60;;;;;;4949435;28;19926;-78
2022/05/16 08:22:40;;;;;;;;;;;22.40;96.60;;;;;;4947952;28;20370;-77
2022/05/16 08:25:06;;;;;;;;;;;22.80;97.80;;;;;;4946752;28;19933;-79
2022/05/16 08:27:31;;;;;;;;;;;23.10;89.90;;;;;;4952115;28;20064;-77
2022/05/16 08:29:57;;;;;;;;;;;22.90;77.60;;;;;;4954918;28;19926;-79
2022/05/16 08:32:25;;;;;;;;;;;23.30;92.00;;;;;;4951204;28;20386;-79
2022/05/16 08:34:52;;;;;;;;;;;23.00;90.10;;;;;;4956181;28;19931;-79
2022/05/16 08:40:05;;;;;;;;;;;23.20;84.50;;;;;;4952129;28;19933;-79
2022/05/16 08:42:40;;;;;;;;;;;23.60;94.10;;;;;;4967807;28;19926;-79
2022/05/16 08:45:11;;;;;;;;;;;24.10;90.30;;;;;;4968201;28;20781;-80
2022/05/16 08:47:36;;;;;;;;;;;23.80;74.40;;;;;;4970428;28;19937;-79
2022/05/16 08:50:06;;;;;;;;;;;24.00;93.50;;;;;;4974950;28;19926;-78
2022/05/16 08:52:39;;;;;;;;;;;24.30;90.30;;;;;;4973588;28;19926;-79
2022/05/16 08:55:14;;;;;;;;;;;24.30;86.90;;;;;;4956008;28;19947;-80
2022/05/16 08:57:45;;;;;;;;;;;24.50;89.20;;;;;;4955307;28;19927;-79
2022/05/16 09:00:47;;;;;;;;;;;24.90;86.20;;;;;;4972760;28;19980;-80
2022/05/16 09:03:15;;;;;;;;;;;24.80;86.60;;;;;;4960877;28;19928;-79
2022/05/16 09:05:47;;;;;;;;;;;24.90;82.70;;;;;;4976490;28;19933;-79
2022/05/16 09:08:16;;;;;;;;;;;24.60;82.50;;;;;;4974005;28;19984;-78
2022/05/16 09:10:53;;;;;;;;;;;25.20;81.20;;;;;;4972880;28;19930;-78
2022/05/16 09:13:19;;;;;;;;;;;24.80;83.00;;;;;;4973245;28;19972;-78
2022/05/16 09:15:51;;;;;;;;;;;25.20;85.00;;;;;;4974037;28;19933;-78
2022/05/16 09:18:17;;;;;;;;;;;25.00;85.10;;;;;;4971915;28;19932;-79
2022/05/16 09:20:51;;;;;;;;;;;24.80;78.00;;;;;;4977304;28;20291;-79
2022/05/16 09:23:19;;;;;;;;;;;25.10;82.50;;;;;;4972837;28;19926;-77
2022/05/16 09:26:04;;;;;;;;;;;25.20;84.20;;;;;;4970665;28;19976;-80
2022/05/16 09:28:34;;;;;;;;;;;24.90;88.90;;;;;;4972888;28;20488;-79
2022/05/16 09:31:13;;;;;;;;;;;25.30;89.00;;;;;;4955193;28;20334;-78
2022/05/16 09:33:51;;;;;;;;;;;25.40;80.70;;;;;;4975415;28;20036;-79
2022/05/16 09:36:22;;;;;;;;;;;25.60;81.20;;;;;;4972317;28;19969;-79
2022/05/16 09:38:47;;;;;;;;;;;26.00;77.70;;;;;;4973389;28;19926;-78
2022/05/16 09:41:17;;;;;;;;;;;26.10;83.00;;;;;;4971392;28;20362;-78
2022/05/16 09:43:44;;;;;;;;;;;26.70;74.90;;;;;;4961636;28;19925;-78
2022/05/16 09:46:29;;;;;;;;;;;26.30;69.70;;;;;;4972707;28;20008;-79
2022/05/16 09:48:56;;;;;;;;;;;26.20;75.30;;;;;;4971368;28;20637;-79
2022/05/16 09:51:22;;;;;;;;;;;26.30;72.40;;;;;;4957062;28;19925;-78
2022/05/16 09:53:49;;;;;;;;;;;26.40;72.90;;;;;;4976837;28;19925;-78
2022/05/16 09:56:20;;;;;;;;;;;26.30;74.40;;;;;;4974111;28;19925;-78
2022/05/16 09:58:51;;;;;;;;;;;26.30;66.50;;;;;;4956738;28;19925;-79
2022/05/16 10:01:38;;;;;;;;;;;26.60;74.90;;;;;;4970617;28;20064;-78
2022/05/16 10:04:10;;;;;;;;;;;26.60;70.50;;;;;;4970869;28;20012;-79
2022/05/16 10:06:37;;;;;;;;;;;26.60;75.60;;;;;;4974795;28;19929;-79
2022/05/16 10:09:15;;;;;;;;;;;26.50;75.80;;;;;;4966632;28;20049;-79
2022/05/16 10:11:47;;;;;;;;;;;26.80;77.30;;;;;;4961236;28;19996;-78
2022/05/16 10:14:13;;;;;;;;;;;27.60;66.90;;;;;;4957432;28;19926;-79
2022/05/16 10:16:41;;;;;;;;;;;28.10;69.90;;;;;;4954986;28;19925;-78
2022/05/16 10:19:09;;;;;;;;;;;27.60;65.20;;;;;;4937747;28;19971;-79
2022/05/16 10:21:48;;;;;;;;;;;27.20;68.00;;;;;;4960187;28;20016;-79
2022/05/16 10:24:13;;;;;;;;;;;26.90;63.60;;;;;;4967562;28;20434;-78
2022/05/16 10:26:42;;;;;;;;;;;28.10;73.20;;;;;;4970407;28;19932;-78
2022/05/16 10:29:12;;;;;;;;;;;28.60;68.50;;;;;;4972049;28;19929;-78
2022/05/16 10:34:31;;;;;;;;;;;28.70;67.00;;;;;;4956411;28;19926;-79
2022/05/16 10:36:58;;;;;;;;;;;28.40;66.50;;;;;;4974100;28;20054;-79
2022/05/16 10:39:26;;;;;;;;;;;26.70;63.90;;;;;;4972413;28;19940;-78
2022/05/16 10:42:12;;;;;;;;;;;27.20;69.60;;;;;;4972316;28;19932;-79
2022/05/16 10:44:45;;;;;;;;;;;27.40;70.50;;;;;;4954121;28;20407;-79
2022/05/16 10:47:20;;;;;;;;;;;27.20;67.90;;;;;;4970293;28;19929;-79
2022/05/16 10:49:56;;;;;;;;;;;27.20;71.20;;;;;;4970170;28;19936;-79
2022/05/16 10:52:26;;;;;;;;;;;26.70;69.10;;;;;;4954872;28;20020;-79
2022/05/16 10:54:51;;;;;;;;;;;26.60;71.90;;;;;;4974392;28;19984;-78
2022/05/16 10:57:27;;;;;;;;;;;26.30;74.20;;;;;;4972251;28;20039;-79
2022/05/16 11:00:02;;;;;;;;;;;25.90;78.30;;;;;;4971373;28;19926;-79
2022/05/16 11:02:28;;;;;;;;;;;25.90;81.10;;;;;;4962707;28;19921;-78
2022/05/16 11:05:12;;;;;;;;;;;25.90;72.50;;;;;;4973581;28;19930;-79
2022/05/16 11:07:38;;;;;;;;;;;25.80;76.80;;;;;;4969582;28;19926;-78
2022/05/16 11:10:09;;;;;;;;;;;25.70;74.90;;;;;;4970302;28;19991;-78
2022/05/16 11:12:35;;;;;;;;;;;25.80;77.30;;;;;;4972662;28;20906;-78
2022/05/16 11:15:07;;;;;;;;;;;25.60;76.90;;;;;;4971203;28;19926;-78
2022/05/16 11:17:51;;;;;;;;;;;25.60;77.10;;;;;;4973664;28;19922;-79
2022/05/16 11:20:25;;;;;;;;;;;25.70;76.30;;;;;;4973918;28;19932;-78
2022/05/16 11:22:56;;;;;;;;;;;25.60;76.00;;;;;;4958240;28;19948;-78
2022/05/16 11:25:31;;;;;;;;;;;25.50;78.00;;;;;;4980696;28;19933;-79
2022/05/16 11:28:06;;;;;;;;;;;25.40;77.80;;;;;;4958151;28;19926;-79
2022/05/16 11:30:35;;;;;;;;;;;25.30;76.00;;;;;;4979313;28;19975;-78
2022/05/16 11:33:20;;;;;;;;;;;25.30;75.70;;;;;;4980984;28;19925;-79
2022/05/16 11:35:47;;;;;;;;;;;25.20;75.70;;;;;;4977722;28;19925;-78
2022/05/16 11:38:35;;;;;;;;;;;25.20;78.10;;;;;;4958363;28;19936;-78
2022/05/16 11:41:04;;;;;;;;;;;25.20;78.20;;;;;;4977353;28;19925;-78
2022/05/16 11:43:32;;;;;;;;;;;25.00;79.60;;;;;;4974503;28;20024;-78
2022/05/16 11:46:07;;;;;;;;;;;25.00;80.60;;;;;;4974898;28;19981;-79
2022/05/16 11:48:59;;;;;;;;;;;25.00;80.30;;;;;;4980495;28;21058;-79
2022/05/16 11:51:40;;;;;;;;;;;25.10;81.50;;;;;;4953963;28;20441;-78
2022/05/16 11:54:07;;;;;;;;;;;24.90;83.70;;;;;;4978472;28;19933;-79
2022/05/16 12:02:32;;;;;;;;;;;24.60;82.30;;;;;;4963224;28;19936;-78
2022/05/16 12:05:01;;;;;;;;;;;24.60;84.40;;;;;;4977152;28;20000;-79
2022/05/16 12:07:27;;;;;;;;;;;24.60;85.40;;;;;;4976817;28;19926;-79
2022/05/16 12:10:00;;;;;;;;;;;24.60;84.70;;;;;;4979949;28;20032;-78
2022/05/16 12:12:34;;;;;;;;;;;24.80;85.00;;;;;;4980750;28;20052;-79
2022/05/16 12:15:11;;;;;;;;;;;24.80;82.90;;;;;;4977811;28;20395;-79
2022/05/16 12:17:38;;;;;;;;;;;24.80;84.10;;;;;;4958549;28;19988;-78
2022/05/16 12:20:10;;;;;;;;;;;24.90;83.20;;;;;;4974870;28;19932;-79
2022/05/16 12:22:35;;;;;;;;;;;25.00;80.80;;;;;;4977069;28;20063;-78
2022/05/16 12:25:08;;;;;;;;;;;25.00;81.60;;;;;;4977883;28;19933;-79
2022/05/16 12:27:36;;;;;;;;;;;24.90;81.20;;;;;;4978980;28;20028;-78
2022/05/16 12:30:06;;;;;;;;;;;25.00;85.40;;;;;;4971280;28;19925;-79
2022/05/16 12:32:31;;;;;;;;;;;25.00;82.40;;;;;;4973777;28;19933;-78
2022/05/16 12:35:08;;;;;;;;;;;24.90;87.00;;;;;;4960324;28;19926;-78
2022/05/16 12:37:35;;;;;;;;;;;24.90;87.90;;;;;;4971522;28;20008;-79
2022/05/16 12:40:18;;;;;;;;;;;24.80;89.10;;;;;;4955321;28;20356;-79
2022/05/16 12:43:03;;;;;;;;;;;24.70;90.10;;;;;;4968066;28;19929;-79
2022/05/16 12:45:47;;;;;;;;;;;24.70;85.30;;;;;;4977635;28;20472;-79
2022/05/16 12:48:36;;;;;;;;;;;24.60;88.70;;;;;;4973730;28;19928;-79
2022/05/16 12:51:20;;;;;;;;;;;24.60;83.10;;;;;;4976327;28;20020;-79
2022/05/16 12:54:00;;;;;;;;;;;24.50;87.00;;;;;;4975923;28;19977;-79
2022/05/16 12:56:30;;;;;;;;;;;24.50;83.50;;;;;;4975947;28;19933;-79
2022/05/16 12:59:14;;;;;;;;;;;24.70;90.20;;;;;;4975172;28;19925;-79
2022/05/16 13:01:46;;;;;;;;;;;24.80;93.20;;;;;;4958483;28;19946;-79
2022/05/16 13:04:47;;;;;;;;;;;25.00;92.70;;;;;;4973940;28;19925;-79
2022/05/16 13:07:16;;;;;;;;;;;25.60;84.20;;;;;;4973713;28;20681;-79
2022/05/16 13:09:48;;;;;;;;;;;26.30;87.60;;;;;;4973350;28;19936;-79
2022/05/16 13:12:40;;;;;;;;;;;26.30;90.70;;;;;;4972721;28;19930;-79
2022/05/16 13:15:15;;;;;;;;;;;26.40;84.30;;;;;;4924997;28;19979;-79
2022/05/16 13:17:49;;;;;;;;;;;26.30;85.10;;;;;;4976505;28;19929;-78
2022/05/16 13:20:16;;;;;;;;;;;26.10;87.00;;;;;;4976362;28;20128;-79
2022/05/16 13:22:43;;;;;;;;;;;26.30;81.40;;;;;;4977295;28;19933;-79
2022/05/16 13:25:09;;;;;;;;;;;26.10;78.50;;;;;;4973475;28;19925;-79
2022/05/16 13:30:21;;;;;;;;;;;26.10;81.60;;;;;;4971928;28;19967;-78
2022/05/16 13:32:47;;;;;;;;;;;26.10;83.20;;;;;;4974566;28;20044;-78
2022/05/16 13:35:24;;;;;;;;;;;26.20;82.10;;;;;;4955568;28;19933;-78
2022/05/16 13:37:51;;;;;;;;;;;26.20;87.50;;;;;;4974183;28;20420;-78
2022/05/16 13:40:23;;;;;;;;;;;26.20;86.20;;;;;;4974961;28;20310;-78
2022/05/16 13:42:49;;;;;;;;;;;26.40;89.90;;;;;;4956256;28;19926;-78
2022/05/16 13:45:20;;;;;;;;;;;26.60;89.40;;;;;;4955150;28;20798;-78
2022/05/16 13:47:45;;;;;;;;;;;26.50;86.10;;;;;;4975116;28;20598;-78
2022/05/16 13:50:25;;;;;;;;;;;26.30;81.60;;;;;;4974022;28;19976;-80
2022/05/16 13:52:51;;;;;;;;;;;26.70;84.00;;;;;;4979477;28;20559;-78
2022/05/16 13:55:17;;;;;;;;;;;27.20;79.80;;;;;;4970949;28;19925;-78
2022/05/16 13:57:44;;;;;;;;;;;27.40;81.60;;;;;;4974410;28;19991;-78
2022/05/16 14:00:33;;;;;;;;;;;27.50;79.00;;;;;;4956631;28;19925;-80
2022/05/16 14:03:00;;;;;;;;;;;27.40;82.00;;;;;;4965485;28;20023;-78
2022/05/16 14:05:35;;;;;;;;;;;26.80;75.20;;;;;;4954329;28;19926;-79
2022/05/16 14:08:02;;;;;;;;;;;26.70;77.30;;;;;;4954240;28;20434;-79
2022/05/16 14:10:30;;;;;;;;;;;26.80;81.20;;;;;;4975502;28;19925;-79
2022/05/16 14:13:09;;;;;;;;;;;26.70;81.10;;;;;;4971877;28;20047;-78
2022/05/16 14:15:37;;;;;;;;;;;26.50;80.00;;;;;;4971092;28;20771;-78
2022/05/16 14:18:10;;;;;;;;;;;26.90;79.90;;;;;;4972522;28;20039;-79
2022/05/16 14:20:51;;;;;;;;;;;26.50;77.10;;;;;;4972817;28;20036;-79
2022/05/16 14:23:23;;;;;;;;;;;27.50;78.70;;;;;;4973780;28;19964;-80
2022/05/16 14:25:52;;;;;;;;;;;27.80;78.70;;;;;;4976592;28;20375;-79
2022/05/16 14:28:18;;;;;;;;;;;27.30;78.30;;;;;;4970224;28;19929;-78
2022/05/16 14:30:54;;;;;;;;;;;27.30;78.30;;;;;;4969258;28;19999;-78
2022/05/16 14:33:20;;;;;;;;;;;26.80;78.20;;;;;;4971134;28;19933;-79
2022/05/16 14:35:56;;;;;;;;;;;26.40;78.40;;;;;;4974538;28;19968;-80
2022/05/16 14:38:22;;;;;;;;;;;26.20;80.60;;;;;;4974446;28;20004;-78
2022/05/16 14:40:49;;;;;;;;;;;26.30;82.80;;;;;;4972039;28;20060;-78
2022/05/16 14:43:33;;;;;;;;;;;26.50;82.20;;;;;;4969470;28;20814;-78
2022/05/16 14:48:47;;;;;;;;;;;26.80;84.90;;;;;;4969760;28;20327;-79
2022/05/16 14:51:15;;;;;;;;;;;26.40;78.80;;;;;;4971553;28;19926;-79
2022/05/16 14:53:44;;;;;;;;;;;26.20;81.80;;;;;;4971912;28;19925;-78
2022/05/16 14:56:11;;;;;;;;;;;26.10;82.50;;;;;;4971367;28;19957;-79
2022/05/16 14:58:37;;;;;;;;;;;25.80;81.40;;;;;;4975105;28;20048;-79
2022/05/16 15:04:03;;;;;;;;;;;25.30;84.60;;;;;;4972647;28;19932;-78
2022/05/16 15:06:37;;;;;;;;;;;24.90;84.60;;;;;;4954202;28;19925;-79
2022/05/16 15:09:08;;;;;;;;;;;24.80;86.50;;;;;;4969157;28;19922;-77
2022/05/16 15:11:37;;;;;;;;;;;24.50;86.80;;;;;;4976093;28;20217;-77
2022/05/16 15:14:03;;;;;;;;;;;24.20;87.60;;;;;;4975306;28;20601;-78